sensor_id;sensor_type;location;lat;lon;timestamp;P1;durP1;ratioP1;P2;durP2;ratioP2
16977;SDS011;8605;52.548;4.918;2022-08-19T00:04:59;7.07;;;3.83;;
16977;SDS011;8605;52.548;4.918;2022-08-19T00:10:23;8.13;;;5.10;;
16977;SDS011;8605;52.548;4.918;2022-08-19T00:15:46;4.88;;;3.78;;
16977;SDS011;8605;52.548;4.918;2022-08-19T00:21:11;9.98;;;4.18;;
16977;SDS011;8605;52.548;4.918;2022-08-19T00:26:34;6.55;;;4.85;;
16977;SDS011;8605;52.548;4.918;2022-08-19T00:31:58;5.65;;;4.00;;
16977;SDS011;8605;52.548;4.918;2022-08-19T00:37:23;5.20;;;3.33;;
16977;SDS011;8605;52.548;4.918;2022-08-19T00:42:48;5.35;;;4.05;;
16977;SDS011;8605;52.548;4.918;2022-08-19T00:48:13;6.03;;;3.80;;
16977;SDS011;8605;52.548;4.918;2022-08-19T00:53:38;10.93;;;5.20;;
16977;SDS011;8605;52.548;4.918;2022-08-19T00:59:02;8.40;;;5.00;;
16977;SDS011;8605;52.548;4.918;2022-08-19T01:04:30;6.10;;;4.25;;
16977;SDS011;8605;52.548;4.918;2022-08-19T01:09:54;6.25;;;3.97;;
16977;SDS011;8605;52.548;4.918;2022-08-19T01:15:20;6.20;;;4.10;;
16977;SDS011;8605;52.548;4.918;2022-08-19T01:20:46;6.80;;;4.60;;
16977;SDS011;8605;52.548;4.918;2022-08-19T01:26:12;9.73;;;3.92;;
16977;SDS011;8605;52.548;4.918;2022-08-19T01:31:36;8.88;;;4.75;;
16977;SDS011;8605;52.548;4.918;2022-08-19T01:37:01;7.82;;;4.70;;
16977;SDS011;8605;52.548;4.918;2022-08-19T01:42:30;11.57;;;4.82;;
16977;SDS011;8605;52.548;4.918;2022-08-19T01:47:54;7.40;;;4.38;;
16977;SDS011;8605;52.548;4.918;2022-08-19T01:53:23;7.00;;;4.72;;
16977;SDS011;8605;52.548;4.918;2022-08-19T01:58:56;9.82;;;5.03;;
16977;SDS011;8605;52.548;4.918;2022-08-19T02:04:22;7.55;;;5.72;;
16977;SDS011;8605;52.548;4.918;2022-08-19T02:09:47;11.13;;;6.57;;
16977;SDS011;8605;52.548;4.918;2022-08-19T02:15:11;9.90;;;6.45;;
16977;SDS011;8605;52.548;4.918;2022-08-19T02:20:35;9.35;;;5.85;;
16977;SDS011;8605;52.548;4.918;2022-08-19T02:25:59;7.68;;;5.93;;
16977;SDS011;8605;52.548;4.918;2022-08-19T02:31:24;10.27;;;7.20;;
16977;SDS011;8605;52.548;4.918;2022-08-19T02:36:49;10.85;;;6.57;;
16977;SDS011;8605;52.548;4.918;2022-08-19T02:42:13;10.05;;;6.25;;
16977;SDS011;8605;52.548;4.918;2022-08-19T02:47:37;12.65;;;7.03;;
16977;SDS011;8605;52.548;4.918;2022-08-19T02:53:00;12.98;;;7.05;;
16977;SDS011;8605;52.548;4.918;2022-08-19T02:58:23;15.23;;;7.47;;
16977;SDS011;8605;52.548;4.918;2022-08-19T03:03:49;14.43;;;7.88;;
16977;SDS011;8605;52.548;4.918;2022-08-19T03:09:13;14.32;;;7.38;;
16977;SDS011;8605;52.548;4.918;2022-08-19T03:14:36;17.08;;;9.98;;
16977;SDS011;8605;52.548;4.918;2022-08-19T03:20:02;18.60;;;9.00;;
16977;SDS011;8605;52.548;4.918;2022-08-19T03:25:26;14.05;;;8.18;;
16977;SDS011;8605;52.548;4.918;2022-08-19T03:30:56;10.90;;;7.22;;
16977;SDS011;8605;52.548;4.918;2022-08-19T03:36:24;15.05;;;7.70;;
16977;SDS011;8605;52.548;4.918;2022-08-19T03:41:51;11.85;;;6.72;;
16977;SDS011;8605;52.548;4.918;2022-08-19T03:47:35;13.18;;;8.55;;
16977;SDS011;8605;52.548;4.918;2022-08-19T03:53:00;12.85;;;7.82;;
16977;SDS011;8605;52.548;4.918;2022-08-19T03:58:23;12.07;;;8.10;;
16977;SDS011;8605;52.548;4.918;2022-08-19T04:03:46;12.75;;;7.72;;
16977;SDS011;8605;52.548;4.918;2022-08-19T04:09:11;13.95;;;8.38;;
16977;SDS011;8605;52.548;4.918;2022-08-19T04:14:34;14.60;;;7.63;;
16977;SDS011;8605;52.548;4.918;2022-08-19T04:19:57;15.23;;;9.40;;
16977;SDS011;8605;52.548;4.918;2022-08-19T04:25:22;17.38;;;6.95;;
16977;SDS011;8605;52.548;4.918;2022-08-19T04:30:46;14.18;;;8.88;;
16977;SDS011;8605;52.548;4.918;2022-08-19T04:36:15;15.77;;;9.13;;
16977;SDS011;8605;52.548;4.918;2022-08-19T04:41:42;17.48;;;9.00;;
16977;SDS011;8605;52.548;4.918;2022-08-19T04:47:23;16.83;;;9.88;;
16977;SDS011;8605;52.548;4.918;2022-08-19T04:53:07;16.83;;;8.77;;
16977;SDS011;8605;52.548;4.918;2022-08-19T04:58:32;16.33;;;8.73;;
16977;SDS011;8605;52.548;4.918;2022-08-19T05:03:58;15.90;;;9.70;;
16977;SDS011;8605;52.548;4.918;2022-08-19T05:09:21;24.92;;;12.55;;
16977;SDS011;8605;52.548;4.918;2022-08-19T05:14:46;21.38;;;11.85;;
16977;SDS011;8605;52.548;4.918;2022-08-19T05:20:11;24.80;;;12.85;;
16977;SDS011;8605;52.548;4.918;2022-08-19T05:25:51;26.15;;;13.18;;
16977;SDS011;8605;52.548;4.918;2022-08-19T05:31:16;28.48;;;12.45;;
16977;SDS011;8605;52.548;4.918;2022-08-19T05:36:40;28.95;;;14.68;;
16977;SDS011;8605;52.548;4.918;2022-08-19T05:42:07;24.67;;;15.43;;
16977;SDS011;8605;52.548;4.918;2022-08-19T05:47:32;39.10;;;16.83;;
16977;SDS011;8605;52.548;4.918;2022-08-19T05:53:02;44.75;;;18.45;;
16977;SDS011;8605;52.548;4.918;2022-08-19T05:58:25;41.08;;;16.45;;
16977;SDS011;8605;52.548;4.918;2022-08-19T06:03:50;30.75;;;16.77;;
16977;SDS011;8605;52.548;4.918;2022-08-19T06:09:14;34.38;;;17.67;;
16977;SDS011;8605;52.548;4.918;2022-08-19T06:14:37;30.98;;;17.23;;
16977;SDS011;8605;52.548;4.918;2022-08-19T06:20:04;33.58;;;19.40;;
16977;SDS011;8605;52.548;4.918;2022-08-19T06:25:29;41.10;;;18.38;;
16977;SDS011;8605;52.548;4.918;2022-08-19T06:30:52;36.80;;;19.85;;
16977;SDS011;8605;52.548;4.918;2022-08-19T06:36:17;44.85;;;20.05;;
16977;SDS011;8605;52.548;4.918;2022-08-19T06:41:46;37.65;;;17.83;;
16977;SDS011;8605;52.548;4.918;2022-08-19T06:47:15;56.15;;;21.70;;
16977;SDS011;8605;52.548;4.918;2022-08-19T06:52:50;50.03;;;20.38;;
16977;SDS011;8605;52.548;4.918;2022-08-19T06:58:14;44.13;;;20.23;;
16977;SDS011;8605;52.548;4.918;2022-08-19T07:03:37;43.25;;;18.92;;
16977;SDS011;8605;52.548;4.918;2022-08-19T07:09:04;62.65;;;22.40;;
16977;SDS011;8605;52.548;4.918;2022-08-19T07:14:28;41.78;;;16.45;;
16977;SDS011;8605;52.548;4.918;2022-08-19T07:19:51;30.02;;;15.80;;
16977;SDS011;8605;52.548;4.918;2022-08-19T07:25:16;47.22;;;17.15;;
16977;SDS011;8605;52.548;4.918;2022-08-19T07:30:53;29.27;;;14.68;;
16977;SDS011;8605;52.548;4.918;2022-08-19T07:36:18;34.88;;;14.65;;
16977;SDS011;8605;52.548;4.918;2022-08-19T07:41:44;26.88;;;13.40;;
16977;SDS011;8605;52.548;4.918;2022-08-19T07:47:08;22.95;;;13.77;;
16977;SDS011;8605;52.548;4.918;2022-08-19T07:52:51;28.25;;;11.68;;
16977;SDS011;8605;52.548;4.918;2022-08-19T07:58:18;24.15;;;12.00;;
16977;SDS011;8605;52.548;4.918;2022-08-19T08:03:42;21.90;;;10.02;;
16977;SDS011;8605;52.548;4.918;2022-08-19T08:09:30;18.30;;;10.02;;
16977;SDS011;8605;52.548;4.918;2022-08-19T08:14:56;23.23;;;10.60;;
16977;SDS011;8605;52.548;4.918;2022-08-19T08:20:20;16.45;;;7.88;;
16977;SDS011;8605;52.548;4.918;2022-08-19T08:25:43;13.95;;;6.50;;
16977;SDS011;8605;52.548;4.918;2022-08-19T08:31:11;12.15;;;6.18;;
16977;SDS011;8605;52.548;4.918;2022-08-19T08:36:36;8.85;;;6.15;;
16977;SDS011;8605;52.548;4.918;2022-08-19T08:42:05;13.35;;;7.10;;
16977;SDS011;8605;52.548;4.918;2022-08-19T08:47:40;12.80;;;8.13;;
16977;SDS011;8605;52.548;4.918;2022-08-19T08:53:05;11.40;;;7.72;;
16977;SDS011;8605;52.548;4.918;2022-08-19T08:58:31;17.90;;;8.40;;
16977;SDS011;8605;52.548;4.918;2022-08-19T09:04:05;9.10;;;6.28;;
16977;SDS011;8605;52.548;4.918;2022-08-19T09:09:30;11.02;;;6.05;;
16977;SDS011;8605;52.548;4.918;2022-08-19T09:14:57;8.93;;;5.78;;
16977;SDS011;8605;52.548;4.918;2022-08-19T09:20:24;12.88;;;6.22;;
16977;SDS011;8605;52.548;4.918;2022-08-19T09:25:47;7.88;;;5.22;;
16977;SDS011;8605;52.548;4.918;2022-08-19T09:31:10;10.18;;;7.13;;
16977;SDS011;8605;52.548;4.918;2022-08-19T09:36:35;13.65;;;7.10;;
16977;SDS011;8605;52.548;4.918;2022-08-19T09:42:00;17.17;;;7.18;;
16977;SDS011;8605;52.548;4.918;2022-08-19T09:47:25;17.80;;;7.53;;
16977;SDS011;8605;52.548;4.918;2022-08-19T09:52:49;10.75;;;6.38;;
16977;SDS011;8605;52.548;4.918;2022-08-19T09:58:18;10.38;;;5.18;;
16977;SDS011;8605;52.548;4.918;2022-08-19T10:03:48;12.65;;;5.20;;
16977;SDS011;8605;52.548;4.918;2022-08-19T10:15:00;7.78;;;4.30;;
16977;SDS011;8605;52.548;4.918;2022-08-19T10:20:23;8.52;;;4.40;;
16977;SDS011;8605;52.548;4.918;2022-08-19T10:25:48;7.22;;;4.50;;
16977;SDS011;8605;52.548;4.918;2022-08-19T10:31:14;5.93;;;3.55;;
16977;SDS011;8605;52.548;4.918;2022-08-19T10:37:03;6.05;;;3.70;;
16977;SDS011;8605;52.548;4.918;2022-08-19T10:42:32;12.57;;;5.95;;
16977;SDS011;8605;52.548;4.918;2022-08-19T10:47:56;7.32;;;4.43;;
16977;SDS011;8605;52.548;4.918;2022-08-19T10:53:19;8.50;;;4.47;;
16977;SDS011;8605;52.548;4.918;2022-08-19T10:58:48;7.57;;;4.05;;
16977;SDS011;8605;52.548;4.918;2022-08-19T11:04:11;14.93;;;4.35;;
16977;SDS011;8605;52.548;4.918;2022-08-19T11:09:37;14.48;;;4.90;;
16977;SDS011;8605;52.548;4.918;2022-08-19T11:15:02;6.05;;;3.80;;
16977;SDS011;8605;52.548;4.918;2022-08-19T11:20:26;13.05;;;4.60;;
16977;SDS011;8605;52.548;4.918;2022-08-19T11:25:49;13.13;;;4.97;;
16977;SDS011;8605;52.548;4.918;2022-08-19T11:31:16;6.88;;;4.10;;
16977;SDS011;8605;52.548;4.918;2022-08-19T11:36:41;7.05;;;4.07;;
16977;SDS011;8605;52.548;4.918;2022-08-19T11:42:06;6.22;;;4.03;;
16977;SDS011;8605;52.548;4.918;2022-08-19T11:47:45;6.20;;;3.50;;
16977;SDS011;8605;52.548;4.918;2022-08-19T11:53:08;4.93;;;3.05;;
16977;SDS011;8605;52.548;4.918;2022-08-19T11:58:32;6.45;;;3.17;;
16977;SDS011;8605;52.548;4.918;2022-08-19T12:03:58;7.00;;;2.78;;
16977;SDS011;8605;52.548;4.918;2022-08-19T12:09:21;4.18;;;2.05;;
16977;SDS011;8605;52.548;4.918;2022-08-19T12:14:44;2.55;;;1.63;;
16977;SDS011;8605;52.548;4.918;2022-08-19T12:20:10;2.20;;;1.55;;
16977;SDS011;8605;52.548;4.918;2022-08-19T12:25:35;5.55;;;2.63;;
16977;SDS011;8605;52.548;4.918;2022-08-19T12:30:58;7.45;;;2.90;;
16977;SDS011;8605;52.548;4.918;2022-08-19T12:36:22;3.60;;;2.67;;
16977;SDS011;8605;52.548;4.918;2022-08-19T12:41:46;3.60;;;2.38;;
16977;SDS011;8605;52.548;4.918;2022-08-19T12:47:15;5.60;;;2.40;;
16977;SDS011;8605;52.548;4.918;2022-08-19T12:52:41;9.85;;;2.60;;
16977;SDS011;8605;52.548;4.918;2022-08-19T12:58:04;2.47;;;1.35;;
16977;SDS011;8605;52.548;4.918;2022-08-19T13:03:28;5.97;;;2.33;;
16977;SDS011;8605;52.548;4.918;2022-08-19T13:08:52;3.75;;;1.95;;
16977;SDS011;8605;52.548;4.918;2022-08-19T13:14:20;3.78;;;2.10;;
16977;SDS011;8605;52.548;4.918;2022-08-19T13:19:43;3.83;;;1.85;;
16977;SDS011;8605;52.548;4.918;2022-08-19T13:25:08;5.13;;;1.77;;
16977;SDS011;8605;52.548;4.918;2022-08-19T13:30:31;3.22;;;2.05;;
16977;SDS011;8605;52.548;4.918;2022-08-19T13:36:12;7.45;;;1.45;;
16977;SDS011;8605;52.548;4.918;2022-08-19T13:41:37;3.20;;;1.88;;
16977;SDS011;8605;52.548;4.918;2022-08-19T13:47:01;2.30;;;1.75;;
16977;SDS011;8605;52.548;4.918;2022-08-19T13:52:27;4.80;;;2.22;;
16977;SDS011;8605;52.548;4.918;2022-08-19T13:57:52;3.05;;;2.08;;
16977;SDS011;8605;52.548;4.918;2022-08-19T14:03:16;3.42;;;1.60;;
16977;SDS011;8605;52.548;4.918;2022-08-19T14:08:39;3.75;;;1.98;;
16977;SDS011;8605;52.548;4.918;2022-08-19T14:14:08;5.25;;;2.22;;
16977;SDS011;8605;52.548;4.918;2022-08-19T14:19:37;2.40;;;1.50;;
16977;SDS011;8605;52.548;4.918;2022-08-19T14:25:01;2.33;;;1.52;;
16977;SDS011;8605;52.548;4.918;2022-08-19T14:30:27;4.88;;;2.15;;
16977;SDS011;8605;52.548;4.918;2022-08-19T14:35:52;2.90;;;1.75;;
16977;SDS011;8605;52.548;4.918;2022-08-19T14:41:21;5.35;;;1.88;;
16977;SDS011;8605;52.548;4.918;2022-08-19T14:46:49;4.50;;;2.38;;
16977;SDS011;8605;52.548;4.918;2022-08-19T14:52:15;2.85;;;2.25;;
16977;SDS011;8605;52.548;4.918;2022-08-19T14:57:39;3.80;;;1.70;;
16977;SDS011;8605;52.548;4.918;2022-08-19T15:03:04;4.97;;;2.25;;
16977;SDS011;8605;52.548;4.918;2022-08-19T15:08:28;5.45;;;1.95;;
16977;SDS011;8605;52.548;4.918;2022-08-19T15:13:52;3.70;;;2.13;;
16977;SDS011;8605;52.548;4.918;2022-08-19T15:19:17;3.38;;;2.28;;
16977;SDS011;8605;52.548;4.918;2022-08-19T15:24:40;3.90;;;2.20;;
16977;SDS011;8605;52.548;4.918;2022-08-19T15:30:09;3.55;;;2.42;;
16977;SDS011;8605;52.548;4.918;2022-08-19T15:35:34;6.35;;;2.28;;
16977;SDS011;8605;52.548;4.918;2022-08-19T15:40:58;3.42;;;2.20;;
16977;SDS011;8605;52.548;4.918;2022-08-19T15:46:42;2.72;;;1.48;;
16977;SDS011;8605;52.548;4.918;2022-08-19T15:52:08;1.92;;;1.23;;
16977;SDS011;8605;52.548;4.918;2022-08-19T15:57:31;7.97;;;1.73;;
16977;SDS011;8605;52.548;4.918;2022-08-19T16:03:13;2.25;;;1.20;;
16977;SDS011;8605;52.548;4.918;2022-08-19T16:09:02;2.35;;;1.23;;
16977;SDS011;8605;52.548;4.918;2022-08-19T16:14:25;1.45;;;1.27;;
16977;SDS011;8605;52.548;4.918;2022-08-19T16:19:49;1.85;;;0.98;;
16977;SDS011;8605;52.548;4.918;2022-08-19T16:25:14;2.78;;;1.40;;
16977;SDS011;8605;52.548;4.918;2022-08-19T16:30:38;2.38;;;1.85;;
16977;SDS011;8605;52.548;4.918;2022-08-19T16:36:02;4.22;;;2.00;;
16977;SDS011;8605;52.548;4.918;2022-08-19T16:41:30;1.30;;;1.20;;
16977;SDS011;8605;52.548;4.918;2022-08-19T16:46:53;1.15;;;1.05;;
16977;SDS011;8605;52.548;4.918;2022-08-19T16:52:19;1.35;;;1.00;;
16977;SDS011;8605;52.548;4.918;2022-08-19T16:57:48;0.60;;;0.50;;
16977;SDS011;8605;52.548;4.918;2022-08-19T17:03:12;1.48;;;0.77;;
16977;SDS011;8605;52.548;4.918;2022-08-19T17:08:36;1.10;;;1.10;;
16977;SDS011;8605;52.548;4.918;2022-08-19T17:14:01;0.65;;;0.65;;
16977;SDS011;8605;52.548;4.918;2022-08-19T17:19:25;0.80;;;0.80;;
16977;SDS011;8605;52.548;4.918;2022-08-19T17:24:48;2.03;;;0.77;;
16977;SDS011;8605;52.548;4.918;2022-08-19T17:30:13;1.45;;;1.00;;
16977;SDS011;8605;52.548;4.918;2022-08-19T17:35:37;1.23;;;0.95;;
16977;SDS011;8605;52.548;4.918;2022-08-19T17:41:04;3.55;;;1.80;;
16977;SDS011;8605;52.548;4.918;2022-08-19T17:46:30;1.52;;;1.30;;
16977;SDS011;8605;52.548;4.918;2022-08-19T17:51:55;1.23;;;1.13;;
16977;SDS011;8605;52.548;4.918;2022-08-19T17:57:20;2.08;;;1.10;;
16977;SDS011;8605;52.548;4.918;2022-08-19T18:02:45;2.00;;;1.40;;
16977;SDS011;8605;52.548;4.918;2022-08-19T18:08:12;1.35;;;1.13;;
16977;SDS011;8605;52.548;4.918;2022-08-19T18:13:35;2.13;;;1.02;;
16977;SDS011;8605;52.548;4.918;2022-08-19T18:19:00;1.63;;;1.02;;
16977;SDS011;8605;52.548;4.918;2022-08-19T18:24:23;4.55;;;2.15;;
16977;SDS011;8605;52.548;4.918;2022-08-19T18:29:46;3.38;;;1.70;;
16977;SDS011;8605;52.548;4.918;2022-08-19T18:35:12;1.60;;;1.30;;
16977;SDS011;8605;52.548;4.918;2022-08-19T18:40:37;1.73;;;1.45;;
16977;SDS011;8605;52.548;4.918;2022-08-19T18:46:17;4.43;;;2.17;;
16977;SDS011;8605;52.548;4.918;2022-08-19T18:51:59;3.40;;;1.95;;
16977;SDS011;8605;52.548;4.918;2022-08-19T18:57:23;4.40;;;1.75;;
16977;SDS011;8605;52.548;4.918;2022-08-19T19:02:46;3.75;;;2.65;;
16977;SDS011;8605;52.548;4.918;2022-08-19T19:08:11;11.02;;;3.28;;
16977;SDS011;8605;52.548;4.918;2022-08-19T19:13:36;4.22;;;3.22;;
16977;SDS011;8605;52.548;4.918;2022-08-19T19:19:00;10.02;;;3.22;;
16977;SDS011;8605;52.548;4.918;2022-08-19T19:24:28;4.45;;;3.25;;
16977;SDS011;8605;52.548;4.918;2022-08-19T19:29:53;5.53;;;3.15;;
16977;SDS011;8605;52.548;4.918;2022-08-19T19:35:16;7.00;;;3.10;;
16977;SDS011;8605;52.548;4.918;2022-08-19T19:40:41;4.45;;;2.92;;
16977;SDS011;8605;52.548;4.918;2022-08-19T19:46:04;5.15;;;2.70;;
16977;SDS011;8605;52.548;4.918;2022-08-19T19:51:28;7.15;;;4.28;;
16977;SDS011;8605;52.548;4.918;2022-08-19T19:56:59;4.47;;;3.08;;
16977;SDS011;8605;52.548;4.918;2022-08-19T20:02:22;4.28;;;3.08;;
16977;SDS011;8605;52.548;4.918;2022-08-19T20:07:46;4.80;;;3.13;;
16977;SDS011;8605;52.548;4.918;2022-08-19T20:13:29;6.82;;;3.92;;
16977;SDS011;8605;52.548;4.918;2022-08-19T20:18:52;9.32;;;3.42;;
16977;SDS011;8605;52.548;4.918;2022-08-19T20:24:18;6.88;;;3.50;;
16977;SDS011;8605;52.548;4.918;2022-08-19T20:29:44;5.82;;;3.28;;
16977;SDS011;8605;52.548;4.918;2022-08-19T20:35:09;6.30;;;3.70;;
16977;SDS011;8605;52.548;4.918;2022-08-19T20:40:33;12.13;;;2.95;;
16977;SDS011;8605;52.548;4.918;2022-08-19T20:45:59;5.65;;;3.30;;
16977;SDS011;8605;52.548;4.918;2022-08-19T20:51:24;6.57;;;3.72;;
16977;SDS011;8605;52.548;4.918;2022-08-19T20:56:47;10.50;;;4.55;;
16977;SDS011;8605;52.548;4.918;2022-08-19T21:02:13;7.90;;;4.00;;
16977;SDS011;8605;52.548;4.918;2022-08-19T21:07:36;6.93;;;3.55;;
16977;SDS011;8605;52.548;4.918;2022-08-19T21:13:00;5.35;;;3.72;;
16977;SDS011;8605;52.548;4.918;2022-08-19T21:18:25;10.90;;;4.28;;
16977;SDS011;8605;52.548;4.918;2022-08-19T21:23:49;11.85;;;4.55;;
16977;SDS011;8605;52.548;4.918;2022-08-19T21:29:12;10.30;;;4.60;;
16977;SDS011;8605;52.548;4.918;2022-08-19T21:34:37;8.32;;;3.90;;
16977;SDS011;8605;52.548;4.918;2022-08-19T21:40:00;7.05;;;4.75;;
16977;SDS011;8605;52.548;4.918;2022-08-19T21:45:24;6.78;;;3.53;;
16977;SDS011;8605;52.548;4.918;2022-08-19T21:50:48;10.13;;;4.55;;
16977;SDS011;8605;52.548;4.918;2022-08-19T21:56:12;6.15;;;4.28;;
16977;SDS011;8605;52.548;4.918;2022-08-19T22:01:35;6.93;;;4.00;;
16977;SDS011;8605;52.548;4.918;2022-08-19T22:07:00;12.02;;;4.20;;
16977;SDS011;8605;52.548;4.918;2022-08-19T22:12:24;8.55;;;3.17;;
16977;SDS011;8605;52.548;4.918;2022-08-19T22:17:48;5.93;;;3.35;;
16977;SDS011;8605;52.548;4.918;2022-08-19T22:23:13;9.45;;;3.65;;
16977;SDS011;8605;52.548;4.918;2022-08-19T22:28:36;6.25;;;3.75;;
16977;SDS011;8605;52.548;4.918;2022-08-19T22:34:01;7.55;;;3.97;;
16977;SDS011;8605;52.548;4.918;2022-08-19T22:39:25;4.25;;;3.13;;
16977;SDS011;8605;52.548;4.918;2022-08-19T22:44:48;7.32;;;3.78;;
16977;SDS011;8605;52.548;4.918;2022-08-19T22:50:12;9.27;;;4.38;;
16977;SDS011;8605;52.548;4.918;2022-08-19T22:55:37;7.18;;;3.33;;
16977;SDS011;8605;52.548;4.918;2022-08-19T23:01:00;14.20;;;3.42;;
16977;SDS011;8605;52.548;4.918;2022-08-19T23:06:24;11.75;;;4.05;;
16977;SDS011;8605;52.548;4.918;2022-08-19T23:11:56;7.75;;;3.47;;
16977;SDS011;8605;52.548;4.918;2022-08-19T23:17:19;14.50;;;3.28;;
16977;SDS011;8605;52.548;4.918;2022-08-19T23:22:44;5.60;;;3.95;;
16977;SDS011;8605;52.548;4.918;2022-08-19T23:28:09;7.32;;;3.13;;
16977;SDS011;8605;52.548;4.918;2022-08-19T23:33:50;10.02;;;2.92;;
16977;SDS011;8605;52.548;4.918;2022-08-19T23:39:14;7.97;;;3.40;;
16977;SDS011;8605;52.548;4.918;2022-08-19T23:44:38;9.35;;;3.47;;
16977;SDS011;8605;52.548;4.918;2022-08-19T23:50:14;4.93;;;3.42;;
16977;SDS011;8605;52.548;4.918;2022-08-19T23:55:39;3.97;;;2.97;;
